Aviation Digital Data Service (ADDS)

Output produced by METARs form (2009 UTC 23 January 2019)
found at http://www.aviationweather.gov/metar/data/
 
Forecast for: SUMU (CARRASCO (CIV/MI, UY)
Text: TAF SUMU 231730Z 2318/2418 14015KT 9999 FEW030 SCT080 TX28/2418Z TN18/2409Z
Forecast period: 1800 to 2200 UTC 23 January 2019
Forecast type: FROM: standard forecast or significant change
Winds: from the SE (140 degrees) at 17 MPH (15 knots; 7.7 m/s)
Visibility: 6 or more miles 10+ km)
Ceiling: at least 12,000 feet AGL
Clouds: few clouds at 3000 feet AGL
scattered clouds at 8000 feet AGL
Weather: no significant weather forecast for this period
Text: BECMG 2322/2400 08010KT
Forecast period: 2200 UTC 23 January 2019 to 1800 UTC 24 January 2019
Forecast type: BECOMING: Conditions expected to become as follows by 0000 UTC 24 January 2019
Winds: from the E (80 degrees) at 12 MPH (10 knots; 5.1 m/s)
Visibility: 6 or more miles 10+ km)
Ceiling: at least 12,000 feet AGL
Clouds: few clouds at 3000 feet AGL
scattered clouds at 8000 feet AGL
Weather: no significant weather forecast for this period